sensor_id;sensor_type;location;lat;lon;timestamp;P1;durP1;ratioP1;P2;durP2;ratioP2
49147;SDS011;41980;45.550;12.070;2022-11-20T00:06:03;3.30;;;2.35;;
49147;SDS011;41980;45.550;12.070;2022-11-20T00:12:09;3.58;;;2.50;;
49147;SDS011;41980;45.550;12.070;2022-11-20T00:18:11;3.88;;;2.67;;
49147;SDS011;41980;45.550;12.070;2022-11-20T00:24:13;3.58;;;2.38;;
49147;SDS011;41980;45.550;12.070;2022-11-20T00:30:16;5.43;;;3.60;;
49147;SDS011;41980;45.550;12.070;2022-11-20T00:36:19;4.53;;;3.20;;
49147;SDS011;41980;45.550;12.070;2022-11-20T00:42:23;4.70;;;2.80;;
49147;SDS011;41980;45.550;12.070;2022-11-20T00:48:25;3.92;;;2.63;;
49147;SDS011;41980;45.550;12.070;2022-11-20T00:54:28;4.43;;;2.55;;
49147;SDS011;41980;45.550;12.070;2022-11-20T01:00:30;3.15;;;2.17;;
49147;SDS011;41980;45.550;12.070;2022-11-20T01:06:33;2.67;;;1.70;;
49147;SDS011;41980;45.550;12.070;2022-11-20T01:12:37;3.38;;;1.90;;
49147;SDS011;41980;45.550;12.070;2022-11-20T01:24:42;2.65;;;1.40;;
49147;SDS011;41980;45.550;12.070;2022-11-20T01:30:45;2.58;;;1.42;;
49147;SDS011;41980;45.550;12.070;2022-11-20T01:36:47;2.58;;;1.58;;
49147;SDS011;41980;45.550;12.070;2022-11-20T01:42:53;2.40;;;1.40;;
49147;SDS011;41980;45.550;12.070;2022-11-20T01:55:17;2.40;;;1.25;;
49147;SDS011;41980;45.550;12.070;2022-11-20T02:01:23;2.08;;;1.17;;
49147;SDS011;41980;45.550;12.070;2022-11-20T02:07:25;2.30;;;1.30;;
49147;SDS011;41980;45.550;12.070;2022-11-20T02:13:29;5.97;;;1.48;;
49147;SDS011;41980;45.550;12.070;2022-11-20T02:19:34;2.55;;;1.50;;
49147;SDS011;41980;45.550;12.070;2022-11-20T02:25:36;2.03;;;1.30;;
49147;SDS011;41980;45.550;12.070;2022-11-20T02:31:40;2.50;;;1.70;;
49147;SDS011;41980;45.550;12.070;2022-11-20T02:37:45;2.30;;;1.50;;
49147;SDS011;41980;45.550;12.070;2022-11-20T02:43:49;2.75;;;1.50;;
49147;SDS011;41980;45.550;12.070;2022-11-20T02:49:51;2.47;;;1.35;;
49147;SDS011;41980;45.550;12.070;2022-11-20T02:55:53;2.25;;;1.50;;
49147;SDS011;41980;45.550;12.070;2022-11-20T03:01:55;2.28;;;1.40;;
49147;SDS011;41980;45.550;12.070;2022-11-20T03:07:57;2.20;;;1.30;;
49147;SDS011;41980;45.550;12.070;2022-11-20T03:14:02;2.40;;;1.40;;
49147;SDS011;41980;45.550;12.070;2022-11-20T03:20:05;3.10;;;1.90;;
49147;SDS011;41980;45.550;12.070;2022-11-20T03:26:10;2.40;;;1.30;;
49147;SDS011;41980;45.550;12.070;2022-11-20T03:32:12;2.60;;;1.40;;
49147;SDS011;41980;45.550;12.070;2022-11-20T03:38:14;2.47;;;1.50;;
49147;SDS011;41980;45.550;12.070;2022-11-20T03:51:52;2.40;;;1.40;;
49147;SDS011;41980;45.550;12.070;2022-11-20T04:03:56;2.40;;;1.50;;
49147;SDS011;41980;45.550;12.070;2022-11-20T04:09:58;2.97;;;2.03;;
49147;SDS011;41980;45.550;12.070;2022-11-20T04:22:01;2.30;;;1.30;;
49147;SDS011;41980;45.550;12.070;2022-11-20T04:34:06;2.72;;;1.45;;
49147;SDS011;41980;45.550;12.070;2022-11-20T04:40:09;2.67;;;1.50;;
49147;SDS011;41980;45.550;12.070;2022-11-20T04:46:11;2.30;;;1.30;;
49147;SDS011;41980;45.550;12.070;2022-11-20T04:52:13;1.80;;;1.10;;
49147;SDS011;41980;45.550;12.070;2022-11-20T04:58:15;2.00;;;1.20;;
49147;SDS011;41980;45.550;12.070;2022-11-20T05:04:18;1.70;;;0.90;;
49147;SDS011;41980;45.550;12.070;2022-11-20T05:10:20;2.38;;;1.50;;
49147;SDS011;41980;45.550;12.070;2022-11-20T05:16:23;2.70;;;2.08;;
49147;SDS011;41980;45.550;12.070;2022-11-20T05:22:26;3.10;;;1.88;;
49147;SDS011;41980;45.550;12.070;2022-11-20T05:28:28;2.97;;;2.08;;
49147;SDS011;41980;45.550;12.070;2022-11-20T05:34:31;3.10;;;2.22;;
49147;SDS011;41980;45.550;12.070;2022-11-20T05:40:33;2.80;;;1.85;;
49147;SDS011;41980;45.550;12.070;2022-11-20T05:46:35;3.33;;;1.80;;
49147;SDS011;41980;45.550;12.070;2022-11-20T05:58:39;3.85;;;2.50;;
49147;SDS011;41980;45.550;12.070;2022-11-20T06:04:41;3.00;;;1.92;;
49147;SDS011;41980;45.550;12.070;2022-11-20T06:16:45;2.72;;;1.70;;
49147;SDS011;41980;45.550;12.070;2022-11-20T06:28:49;3.13;;;2.13;;
49147;SDS011;41980;45.550;12.070;2022-11-20T06:34:52;3.45;;;2.42;;
49147;SDS011;41980;45.550;12.070;2022-11-20T06:40:54;3.38;;;2.20;;
49147;SDS011;41980;45.550;12.070;2022-11-20T06:53:00;5.70;;;4.10;;
49147;SDS011;41980;45.550;12.070;2022-11-20T06:59:04;5.22;;;3.75;;
49147;SDS011;41980;45.550;12.070;2022-11-20T07:05:07;5.70;;;4.57;;
49147;SDS011;41980;45.550;12.070;2022-11-20T07:11:11;4.97;;;3.67;;
49147;SDS011;41980;45.550;12.070;2022-11-20T07:17:13;8.50;;;6.15;;
49147;SDS011;41980;45.550;12.070;2022-11-20T07:23:15;11.60;;;7.38;;
49147;SDS011;41980;45.550;12.070;2022-11-20T07:29:17;36.92;;;23.10;;
49147;SDS011;41980;45.550;12.070;2022-11-20T07:35:19;57.65;;;29.25;;
49147;SDS011;41980;45.550;12.070;2022-11-20T07:41:21;82.10;;;41.15;;
49147;SDS011;41980;45.550;12.070;2022-11-20T07:53:27;34.20;;;20.25;;
49147;SDS011;41980;45.550;12.070;2022-11-20T07:59:31;29.55;;;19.23;;
49147;SDS011;41980;45.550;12.070;2022-11-20T08:11:35;16.60;;;10.27;;
49147;SDS011;41980;45.550;12.070;2022-11-20T08:17:40;12.35;;;7.47;;
49147;SDS011;41980;45.550;12.070;2022-11-20T08:23:42;11.10;;;6.75;;
49147;SDS011;41980;45.550;12.070;2022-11-20T08:35:46;11.40;;;6.18;;
49147;SDS011;41980;45.550;12.070;2022-11-20T08:41:48;8.05;;;5.05;;
49147;SDS011;41980;45.550;12.070;2022-11-20T08:47:50;7.65;;;5.07;;
49147;SDS011;41980;45.550;12.070;2022-11-20T08:53:52;7.13;;;4.55;;
49147;SDS011;41980;45.550;12.070;2022-11-20T09:00:01;5.75;;;3.95;;
49147;SDS011;41980;45.550;12.070;2022-11-20T09:06:12;3.90;;;2.80;;
49147;SDS011;41980;45.550;12.070;2022-11-20T09:12:22;4.75;;;3.42;;
49147;SDS011;41980;45.550;12.070;2022-11-20T09:18:24;4.68;;;3.67;;
49147;SDS011;41980;45.550;12.070;2022-11-20T09:24:27;4.90;;;3.38;;
49147;SDS011;41980;45.550;12.070;2022-11-20T09:30:29;4.50;;;2.70;;
49147;SDS011;41980;45.550;12.070;2022-11-20T09:36:32;4.93;;;2.88;;
49147;SDS011;41980;45.550;12.070;2022-11-20T09:54:49;2.25;;;1.45;;
49147;SDS011;41980;45.550;12.070;2022-11-20T10:00:53;3.58;;;1.38;;
49147;SDS011;41980;45.550;12.070;2022-11-20T10:31:38;2.15;;;1.10;;
49147;SDS011;41980;45.550;12.070;2022-11-20T10:37:46;1.52;;;0.90;;
49147;SDS011;41980;45.550;12.070;2022-11-20T10:43:56;1.85;;;0.90;;
49147;SDS011;41980;45.550;12.070;2022-11-20T10:50:11;2.30;;;0.90;;
49147;SDS011;41980;45.550;12.070;2022-11-20T10:56:19;1.35;;;0.70;;
49147;SDS011;41980;45.550;12.070;2022-11-20T11:08:37;1.40;;;0.65;;
49147;SDS011;41980;45.550;12.070;2022-11-20T11:14:41;1.15;;;0.52;;
49147;SDS011;41980;45.550;12.070;2022-11-20T11:20:49;1.88;;;0.60;;
49147;SDS011;41980;45.550;12.070;2022-11-20T11:33:08;3.13;;;1.85;;
49147;SDS011;41980;45.550;12.070;2022-11-20T11:39:20;2.67;;;1.20;;
49147;SDS011;41980;45.550;12.070;2022-11-20T11:45:57;1.73;;;0.85;;
49147;SDS011;41980;45.550;12.070;2022-11-20T11:52:03;1.30;;;0.70;;
49147;SDS011;41980;45.550;12.070;2022-11-20T12:04:17;3.33;;;1.75;;
49147;SDS011;41980;45.550;12.070;2022-11-20T12:16:36;2.15;;;0.85;;
49147;SDS011;41980;45.550;12.070;2022-11-20T12:22:44;1.73;;;0.73;;
49147;SDS011;41980;45.550;12.070;2022-11-20T12:29:02;1.65;;;0.70;;
49147;SDS011;41980;45.550;12.070;2022-11-20T13:12:15;1.55;;;0.70;;
49147;SDS011;41980;45.550;12.070;2022-11-20T13:18:50;1.40;;;0.60;;
49147;SDS011;41980;45.550;12.070;2022-11-20T13:24:59;1.97;;;1.03;;
49147;SDS011;41980;45.550;12.070;2022-11-20T13:31:02;1.95;;;1.08;;
49147;SDS011;41980;45.550;12.070;2022-11-20T13:49:57;1.70;;;0.80;;
49147;SDS011;41980;45.550;12.070;2022-11-20T13:56:17;1.77;;;1.05;;
49147;SDS011;41980;45.550;12.070;2022-11-20T14:02:32;1.55;;;0.70;;
49147;SDS011;41980;45.550;12.070;2022-11-20T14:14:50;2.03;;;0.95;;
49147;SDS011;41980;45.550;12.070;2022-11-20T14:21:00;2.08;;;0.90;;
49147;SDS011;41980;45.550;12.070;2022-11-20T14:27:12;2.60;;;1.25;;
49147;SDS011;41980;45.550;12.070;2022-11-20T14:33:18;1.60;;;0.95;;
49147;SDS011;41980;45.550;12.070;2022-11-20T14:39:22;2.25;;;1.00;;
49147;SDS011;41980;45.550;12.070;2022-11-20T14:45:28;2.42;;;0.95;;
49147;SDS011;41980;45.550;12.070;2022-11-20T14:51:34;1.60;;;0.88;;
49147;SDS011;41980;45.550;12.070;2022-11-20T14:57:42;2.40;;;0.80;;
49147;SDS011;41980;45.550;12.070;2022-11-20T15:03:45;1.63;;;0.80;;
49147;SDS011;41980;45.550;12.070;2022-11-20T15:09:47;1.20;;;0.65;;
49147;SDS011;41980;45.550;12.070;2022-11-20T15:15:50;1.50;;;0.70;;
49147;SDS011;41980;45.550;12.070;2022-11-20T15:22:15;2.28;;;1.23;;
49147;SDS011;41980;45.550;12.070;2022-11-20T15:34:28;1.92;;;1.10;;
49147;SDS011;41980;45.550;12.070;2022-11-20T15:40:31;2.78;;;1.65;;
49147;SDS011;41980;45.550;12.070;2022-11-20T15:46:35;2.30;;;1.30;;
49147;SDS011;41980;45.550;12.070;2022-11-20T15:52:41;3.47;;;1.88;;
49147;SDS011;41980;45.550;12.070;2022-11-20T15:58:43;4.55;;;2.50;;
49147;SDS011;41980;45.550;12.070;2022-11-20T16:04:47;2.50;;;1.80;;
49147;SDS011;41980;45.550;12.070;2022-11-20T16:10:49;3.03;;;1.75;;
49147;SDS011;41980;45.550;12.070;2022-11-20T16:16:53;3.45;;;2.33;;
49147;SDS011;41980;45.550;12.070;2022-11-20T16:23:07;2.95;;;1.77;;
49147;SDS011;41980;45.550;12.070;2022-11-20T16:29:13;2.28;;;1.50;;
49147;SDS011;41980;45.550;12.070;2022-11-20T16:35:15;3.60;;;2.30;;
49147;SDS011;41980;45.550;12.070;2022-11-20T16:41:18;3.25;;;2.10;;
49147;SDS011;41980;45.550;12.070;2022-11-20T16:47:33;4.25;;;2.97;;
49147;SDS011;41980;45.550;12.070;2022-11-20T16:53:36;4.78;;;2.83;;
49147;SDS011;41980;45.550;12.070;2022-11-20T16:59:42;5.60;;;3.40;;
49147;SDS011;41980;45.550;12.070;2022-11-20T17:05:48;15.50;;;3.55;;
49147;SDS011;41980;45.550;12.070;2022-11-20T17:11:53;5.57;;;3.80;;
49147;SDS011;41980;45.550;12.070;2022-11-20T17:17:57;4.25;;;2.92;;
49147;SDS011;41980;45.550;12.070;2022-11-20T17:24:00;6.95;;;4.82;;
49147;SDS011;41980;45.550;12.070;2022-11-20T17:30:04;9.55;;;5.75;;
49147;SDS011;41980;45.550;12.070;2022-11-20T17:36:07;5.57;;;3.72;;
49147;SDS011;41980;45.550;12.070;2022-11-20T17:42:10;6.68;;;4.35;;
49147;SDS011;41980;45.550;12.070;2022-11-20T17:48:17;7.22;;;4.50;;
49147;SDS011;41980;45.550;12.070;2022-11-20T17:54:19;7.68;;;4.97;;
49147;SDS011;41980;45.550;12.070;2022-11-20T18:00:21;9.30;;;5.97;;
49147;SDS011;41980;45.550;12.070;2022-11-20T18:06:26;6.20;;;4.03;;
49147;SDS011;41980;45.550;12.070;2022-11-20T18:12:29;4.88;;;3.25;;
49147;SDS011;41980;45.550;12.070;2022-11-20T18:18:31;7.07;;;5.20;;
49147;SDS011;41980;45.550;12.070;2022-11-20T18:24:34;9.65;;;6.05;;
49147;SDS011;41980;45.550;12.070;2022-11-20T18:30:37;8.68;;;6.20;;
49147;SDS011;41980;45.550;12.070;2022-11-20T18:36:40;10.98;;;8.02;;
49147;SDS011;41980;45.550;12.070;2022-11-20T18:42:43;13.30;;;9.50;;
49147;SDS011;41980;45.550;12.070;2022-11-20T18:48:48;8.57;;;6.10;;
49147;SDS011;41980;45.550;12.070;2022-11-20T18:54:51;9.48;;;7.43;;
49147;SDS011;41980;45.550;12.070;2022-11-20T19:00:53;6.57;;;4.95;;
49147;SDS011;41980;45.550;12.070;2022-11-20T19:06:55;14.57;;;9.93;;
49147;SDS011;41980;45.550;12.070;2022-11-20T19:12:59;10.88;;;7.97;;
49147;SDS011;41980;45.550;12.070;2022-11-20T19:19:03;13.93;;;9.48;;
49147;SDS011;41980;45.550;12.070;2022-11-20T19:25:06;13.65;;;9.38;;
49147;SDS011;41980;45.550;12.070;2022-11-20T19:31:10;12.10;;;8.25;;
49147;SDS011;41980;45.550;12.070;2022-11-20T19:37:13;11.73;;;7.43;;
49147;SDS011;41980;45.550;12.070;2022-11-20T19:43:16;12.25;;;7.95;;
49147;SDS011;41980;45.550;12.070;2022-11-20T19:49:18;11.77;;;7.65;;
49147;SDS011;41980;45.550;12.070;2022-11-20T20:01:22;11.30;;;7.53;;
49147;SDS011;41980;45.550;12.070;2022-11-20T20:07:26;11.63;;;7.85;;
49147;SDS011;41980;45.550;12.070;2022-11-20T20:13:29;9.80;;;6.18;;
49147;SDS011;41980;45.550;12.070;2022-11-20T20:19:31;8.77;;;6.10;;
49147;SDS011;41980;45.550;12.070;2022-11-20T20:31:38;9.13;;;5.28;;
49147;SDS011;41980;45.550;12.070;2022-11-20T20:37:40;9.48;;;6.50;;
49147;SDS011;41980;45.550;12.070;2022-11-20T20:43:42;10.75;;;7.30;;
49147;SDS011;41980;45.550;12.070;2022-11-20T20:49:47;8.63;;;6.45;;
49147;SDS011;41980;45.550;12.070;2022-11-20T21:01:55;11.95;;;8.20;;
49147;SDS011;41980;45.550;12.070;2022-11-20T21:14:01;13.07;;;7.95;;
49147;SDS011;41980;45.550;12.070;2022-11-20T21:20:10;9.98;;;6.80;;
49147;SDS011;41980;45.550;12.070;2022-11-20T21:27:15;15.80;;;10.10;;
49147;SDS011;41980;45.550;12.070;2022-11-20T21:40:58;10.23;;;7.55;;
49147;SDS011;41980;45.550;12.070;2022-11-20T21:47:14;13.70;;;8.95;;
49147;SDS011;41980;45.550;12.070;2022-11-20T21:53:23;11.15;;;7.95;;
49147;SDS011;41980;45.550;12.070;2022-11-20T22:06:01;10.00;;;7.03;;
49147;SDS011;41980;45.550;12.070;2022-11-20T22:12:40;9.02;;;5.97;;
49147;SDS011;41980;45.550;12.070;2022-11-20T22:18:43;8.75;;;6.35;;
49147;SDS011;41980;45.550;12.070;2022-11-20T22:24:47;9.00;;;6.18;;
49147;SDS011;41980;45.550;12.070;2022-11-20T22:36:51;7.03;;;4.60;;
49147;SDS011;41980;45.550;12.070;2022-11-20T22:42:54;7.30;;;5.13;;
49147;SDS011;41980;45.550;12.070;2022-11-20T23:07:09;7.97;;;5.85;;
49147;SDS011;41980;45.550;12.070;2022-11-20T23:13:11;10.60;;;7.60;;
49147;SDS011;41980;45.550;12.070;2022-11-20T23:25:15;6.87;;;5.40;;
49147;SDS011;41980;45.550;12.070;2022-11-20T23:31:18;7.45;;;5.75;;
49147;SDS011;41980;45.550;12.070;2022-11-20T23:37:20;8.60;;;6.10;;
49147;SDS011;41980;45.550;12.070;2022-11-20T23:43:31;6.80;;;4.97;;
49147;SDS011;41980;45.550;12.070;2022-11-20T23:49:34;7.97;;;5.28;;
